Time;durP1;ratioP1;P1;durP2;ratioP2;P2;SDS_P1;SDS_P2;PMS_P1;PMS_P2;Temp;Humidity;BMP_temperature;BMP_pressure;BME280_temperature;BME280_humidity;BME280_pressure;Samples;Min_cycle;Max_cycle;Signal;HPM_P1;HPM_P2
2022/03/23 00:00:27;;;;;;;27.45;14.60;;;;;;;7.34;42.77;101859.16;8621981;33;20147;-73
2022/03/23 00:05:32;;;;;;;26.45;15.57;;;;;;;7.30;43.60;101848.69;8624408;33;20457;-74
2022/03/23 00:10:36;;;;;;;26.85;15.05;;;;;;;7.12;44.00;101861.03;8618721;33;20415;-73
2022/03/23 00:15:40;;;;;;;27.98;15.13;;;;;;;7.18;44.46;101848.25;8606074;33;21610;-73
2022/03/23 00:20:44;;;;;;;28.58;15.48;;;;;;;7.18;43.96;101847.41;8601429;33;20624;-73
2022/03/23 00:25:47;;;;;;;32.80;17.05;;;;;;;7.05;44.39;101847.94;8599757;33;20449;-73
2022/03/23 00:30:50;;;;;;;26.50;14.82;;;;;;;6.81;44.38;101848.97;8602464;33;20975;-74
2022/03/23 00:36:09;;;;;;;27.35;14.57;;;;;;;6.80;44.33;101853.44;8602623;33;20213;-74
2022/03/23 00:41:13;;;;;;;27.60;15.45;;;;;;;6.88;44.73;101850.44;8603406;33;20179;-74
2022/03/23 00:46:16;;;;;;;30.15;16.70;;;;;;;6.79;45.24;101849.00;8580078;33;20245;-74
2022/03/23 00:51:20;;;;;;;31.83;17.15;;;;;;;6.69;45.47;101845.00;8587405;33;20809;-74
2022/03/23 00:56:24;;;;;;;34.15;17.92;;;;;;;6.56;45.84;101849.09;8615845;33;20924;-74
2022/03/23 01:01:29;;;;;;;31.30;16.02;;;;;;;6.51;45.68;101840.41;8579139;33;20130;-73
2022/03/23 01:06:34;;;;;;;32.13;17.55;;;;;;;6.62;46.06;101848.84;8601921;33;21033;-72
2022/03/23 01:11:37;;;;;;;33.85;17.45;;;;;;;6.65;46.32;101842.50;8579382;33;20562;-73
2022/03/23 01:16:40;;;;;;;30.45;16.73;;;;;;;6.41;46.90;101842.56;8601224;33;20493;-74
2022/03/23 01:21:45;;;;;;;33.95;17.42;;;;;;;6.26;47.43;101832.53;8597386;33;20143;-73
2022/03/23 01:26:49;;;;;;;35.67;17.50;;;;;;;6.01;47.61;101837.97;8573483;33;20182;-74
2022/03/23 01:31:52;;;;;;;30.00;17.20;;;;;;;5.90;48.28;101830.38;8600003;33;20166;-73
2022/03/23 01:36:58;;;;;;;30.13;16.38;;;;;;;5.71;48.47;101839.06;8576444;33;20158;-73
2022/03/23 01:42:02;;;;;;;31.88;17.35;;;;;;;5.55;49.52;101837.91;8578417;33;20837;-73
2022/03/23 01:47:08;;;;;;;31.80;16.52;;;;;;;5.41;49.91;101835.75;8577269;33;20504;-73
2022/03/23 01:52:16;;;;;;;30.02;16.63;;;;;;;5.36;50.07;101827.03;8602026;33;21078;-73
2022/03/23 01:57:22;;;;;;;34.88;18.30;;;;;;;5.42;50.32;101821.47;8597604;33;20424;-73
2022/03/23 02:02:25;;;;;;;32.03;17.65;;;;;;;5.39;50.87;101826.06;8572042;33;20428;-73
2022/03/23 02:07:33;;;;;;;29.80;17.10;;;;;;;5.15;51.42;101828.66;8571252;33;20463;-73
2022/03/23 02:12:38;;;;;;;32.53;19.17;;;;;;;5.08;51.69;101826.28;8572872;33;20183;-73
2022/03/23 02:17:43;;;;;;;31.52;17.73;;;;;;;4.85;52.27;101817.25;8571371;33;20667;-73
2022/03/23 02:22:47;;;;;;;32.55;17.20;;;;;;;4.74;52.74;101817.63;8573092;33;20384;-73
2022/03/23 02:27:51;;;;;;;31.65;16.55;;;;;;;4.71;53.27;101824.84;8577196;33;20510;-73
2022/03/23 02:32:54;;;;;;;34.25;16.17;;;;;;;4.61;53.67;101821.63;8602425;33;20189;-73
2022/03/23 02:37:59;;;;;;;31.77;16.73;;;;;;;4.56;54.35;101813.78;8601278;33;20994;-73
2022/03/23 02:43:02;;;;;;;33.08;15.93;;;;;;;4.62;54.38;101808.25;8596300;33;20154;-73
2022/03/23 02:48:05;;;;;;;30.10;16.05;;;;;;;4.67;54.13;101809.91;8596755;33;20148;-73
2022/03/23 03:04:00;;;;;;;31.17;18.80;;;;;;;5.08;52.70;101815.66;8616019;33;20159;-73
2022/03/23 03:09:05;;;;;;;33.50;18.00;;;;;;;4.96;52.69;101814.22;8616026;33;20215;-74
2022/03/23 03:14:08;;;;;;;32.38;18.08;;;;;;;4.97;52.35;101811.53;8611008;33;20486;-73
2022/03/23 03:19:12;;;;;;;30.38;16.98;;;;;;;4.88;52.87;101814.47;8609869;33;20763;-72
2022/03/23 03:24:20;;;;;;;31.98;17.75;;;;;;;4.68;53.00;101822.28;8606885;33;21011;-73
2022/03/23 03:29:26;;;;;;;29.30;17.13;;;;;;;4.59;53.57;101815.50;8607323;33;20604;-73
2022/03/23 03:34:29;;;;;;;33.30;18.35;;;;;;;4.48;54.08;101823.81;8607709;33;20178;-73
2022/03/23 03:39:33;;;;;;;36.47;18.52;;;;;;;4.49;54.06;101817.56;8606852;33;20195;-73
2022/03/23 03:44:36;;;;;;;37.75;17.13;;;;;;;4.26;54.61;101825.44;8608586;33;20986;-73
2022/03/23 03:49:40;;;;;;;33.20;16.77;;;;;;;4.11;55.39;101818.78;8609464;33;20959;-73
2022/03/23 03:54:44;;;;;;;29.90;17.30;;;;;;;3.90;55.66;101823.88;8612028;33;20171;-73
2022/03/23 03:59:47;;;;;;;30.30;16.77;;;;;;;3.77;55.83;101819.84;8610363;33;20425;-73
2022/03/23 04:04:51;;;;;;;35.35;17.92;;;;;;;3.68;56.27;101815.66;8604752;33;20409;-73
2022/03/23 04:09:55;;;;;;;36.90;18.58;;;;;;;3.77;56.56;101818.97;8601380;33;21303;-74
2022/03/23 04:14:58;;;;;;;31.33;17.65;;;;;;;3.79;56.08;101818.00;8601021;33;21896;-73
2022/03/23 04:20:01;;;;;;;32.88;18.05;;;;;;;3.49;56.79;101819.78;8599142;33;21042;-73
2022/03/23 04:25:08;;;;;;;31.20;16.65;;;;;;;3.17;58.10;101829.50;8594821;33;21046;-73
2022/03/23 04:30:13;;;;;;;33.20;18.35;;;;;;;3.18;57.79;101831.25;8591380;33;21557;-73
2022/03/23 04:35:17;;;;;;;38.10;18.05;;;;;;;3.20;57.90;101837.38;8590765;33;20169;-73
2022/03/23 04:40:22;;;;;;;34.70;18.55;;;;;;;3.18;57.87;101843.66;8591921;33;20147;-72
2022/03/23 04:45:25;;;;;;;33.35;17.90;;;;;;;3.16;58.04;101851.66;8567401;33;20187;-73
2022/03/23 04:50:29;;;;;;;37.78;18.42;;;;;;;2.84;59.14;101852.50;8569550;33;20488;-73
2022/03/23 04:55:34;;;;;;;33.03;16.67;;;;;;;2.93;59.26;101856.69;8599979;33;20449;-74
2022/03/23 05:00:37;;;;;;;33.92;17.80;;;;;;;3.06;59.20;101855.47;8602165;33;20855;-73
2022/03/23 05:05:41;;;;;;;31.33;17.92;;;;;;;3.01;58.70;101860.03;8606315;33;20413;-73
2022/03/23 05:10:47;;;;;;;36.70;17.48;;;;;;;2.95;58.98;101860.19;8617668;33;20419;-73
2022/03/23 05:15:50;;;;;;;35.35;17.52;;;;;;;2.90;58.98;101868.25;8616443;33;20147;-73
2022/03/23 05:20:53;;;;;;;34.43;18.27;;;;;;;2.82;59.15;101871.09;8610311;33;20155;-73
2022/03/23 05:25:57;;;;;;;30.20;16.95;;;;;;;2.72;59.69;101876.72;8604561;33;20694;-73
2022/03/23 05:31:05;;;;;;;33.13;17.10;;;;;;;2.82;59.57;101872.91;8604228;33;21151;-73
2022/03/23 05:36:09;;;;;;;28.98;17.63;;;;;;;2.73;59.41;101878.44;8597899;33;20461;-73
2022/03/23 05:41:13;;;;;;;32.33;17.17;;;;;;;2.67;59.78;101876.81;8597112;33;20751;-73
2022/03/23 05:46:16;;;;;;;36.08;18.23;;;;;;;2.78;59.10;101876.56;8596338;33;20462;-73
2022/03/23 05:51:19;;;;;;;38.07;19.07;;;;;;;2.94;59.01;101877.91;8600063;33;20876;-73
2022/03/23 05:56:24;;;;;;;36.35;19.65;;;;;;;3.03;58.40;101882.97;8596752;33;20429;-74
2022/03/23 06:01:27;;;;;;;37.28;19.17;;;;;;;3.20;58.13;101882.53;8594584;33;20547;-73
2022/03/23 06:06:30;;;;;;;31.67;18.45;;;;;;;3.40;57.47;101884.69;8593794;33;20669;-73
2022/03/23 06:11:35;;;;;;;30.48;17.40;;;;;;;3.48;57.43;101881.78;8594669;33;20404;-73
2022/03/23 06:16:38;;;;;;;31.23;18.03;;;;;;;3.58;57.14;101891.25;8594650;33;20613;-73
2022/03/23 06:21:41;;;;;;;38.47;19.55;;;;;;;3.82;57.07;101888.81;8605670;33;20605;-73
2022/03/23 06:26:45;;;;;;;30.38;18.33;;;;;;;4.08;56.82;101880.94;8606225;33;20191;-74
2022/03/23 06:31:48;;;;;;;32.00;17.98;;;;;;;4.34;55.81;101890.78;8590911;33;20449;-74
2022/03/23 06:36:51;;;;;;;34.55;18.60;;;;;;;4.54;54.66;101891.94;8595444;33;20434;-74
2022/03/23 06:41:56;;;;;;;34.97;18.83;;;;;;;4.86;53.92;101895.38;8596833;33;20428;-73
2022/03/23 06:46:59;;;;;;;28.98;18.95;;;;;;;5.23;53.31;101895.00;8599138;33;20187;-73
2022/03/23 06:52:02;;;;;;;32.63;18.17;;;;;;;5.62;52.52;101890.06;8611833;33;20519;-73
2022/03/23 06:57:07;;;;;;;30.92;18.00;;;;;;;5.95;52.01;101905.72;8603026;33;20437;-73
2022/03/23 07:02:10;;;;;;;34.25;19.38;;;;;;;6.23;52.22;101902.91;8597158;33;20190;-73
2022/03/23 07:07:14;;;;;;;34.55;18.80;;;;;;;6.46;51.34;101904.66;8594417;33;20139;-73
2022/03/23 07:12:20;;;;;;;32.00;20.08;;;;;;;6.83;49.73;101900.53;8595522;33;20132;-75
2022/03/23 07:17:23;;;;;;;35.40;19.98;;;;;;;7.08;49.73;101895.03;8592710;33;20519;-73
2022/03/23 07:22:26;;;;;;;31.15;18.58;;;;;;;7.48;48.98;101898.66;8592555;33;20478;-73
2022/03/23 07:27:31;;;;;;;28.38;18.02;;;;;;;7.87;48.79;101895.13;8592808;33;20464;-73
2022/03/23 07:32:35;;;;;;;32.45;19.05;;;;;;;8.10;47.20;101889.59;8593304;33;20400;-73
2022/03/23 07:37:38;;;;;;;37.33;20.70;;;;;;;8.34;47.05;101892.91;8591464;33;20220;-73
2022/03/23 07:42:42;;;;;;;35.58;19.13;;;;;;;8.67;45.91;101892.25;8602634;33;20172;-73
2022/03/23 07:47:45;;;;;;;32.03;17.77;;;;;;;8.75;44.51;101902.56;8604309;33;20575;-74
2022/03/23 07:52:49;;;;;;;29.50;17.90;;;;;;;9.17;43.98;101904.94;8605267;33;20423;-73
2022/03/23 07:57:54;;;;;;;33.75;17.92;;;;;;;9.29;42.60;101906.09;8603920;33;20434;-73
2022/03/23 08:02:57;;;;;;;38.22;18.00;;;;;;;9.48;43.15;101906.88;8606267;33;20253;-73
2022/03/23 08:08:00;;;;;;;32.42;18.13;;;;;;;9.83;42.80;101912.22;8582133;33;20402;-73
2022/03/23 08:13:05;;;;;;;34.30;19.38;;;;;;;10.30;42.53;101915.97;8572361;33;20426;-73
2022/03/23 08:18:08;;;;;;;29.08;16.02;;;;;;;10.66;42.53;101921.06;8545014;33;20205;-73
2022/03/23 08:23:15;;;;;;;27.13;16.17;;;;;;;11.16;40.46;101916.44;8546699;33;20685;-73
2022/03/23 08:28:20;;;;;;;33.45;19.10;;;;;;;11.70;39.07;101905.97;8534764;33;20360;-73
2022/03/23 08:33:25;;;;;;;29.98;18.40;;;;;;;11.71;39.57;101905.00;8535639;33;20695;-73
2022/03/23 08:38:28;;;;;;;31.60;19.52;;;;;;;12.18;38.83;101906.56;8519646;33;20239;-72
2022/03/23 08:43:35;;;;;;;29.45;17.83;;;;;;;12.48;38.41;101908.25;8556490;33;20500;-73
2022/03/23 08:48:38;;;;;;;31.73;19.48;;;;;;;12.84;37.76;101907.69;8590244;33;20427;-73
2022/03/23 08:53:42;;;;;;;30.33;18.67;;;;;;;13.10;37.78;101911.31;8595680;33;20235;-73
2022/03/23 08:58:49;;;;;;;31.55;19.45;;;;;;;13.55;36.38;101911.00;8620983;32;20659;-74
2022/03/23 09:03:53;;;;;;;26.25;18.23;;;;;;;14.02;35.34;101917.59;8651160;32;20139;-73
2022/03/23 09:08:56;;;;;;;29.98;18.10;;;;;;;14.35;35.48;101912.44;8649425;32;20513;-73
2022/03/23 09:14:01;;;;;;;29.90;17.83;;;;;;;14.67;34.42;101903.81;8650025;32;20902;-73
2022/03/23 09:19:05;;;;;;;31.67;18.30;;;;;;;15.01;33.95;101904.00;8651686;32;20154;-73
2022/03/23 09:24:11;;;;;;;27.05;17.52;;;;;;;15.39;33.43;101897.53;8592878;33;20424;-73
2022/03/23 09:29:15;;;;;;;30.63;18.08;;;;;;;15.66;33.00;101898.09;8591583;33;20163;-73
2022/03/23 09:34:18;;;;;;;28.58;18.58;;;;;;;16.04;31.74;101899.56;8594365;33;22406;-73
2022/03/23 09:39:21;;;;;;;28.23;18.17;;;;;;;16.28;31.34;101895.88;8601381;33;20413;-73
2022/03/23 09:44:28;;;;;;;25.77;16.25;;;;;;;16.41;30.98;101891.19;8601989;33;20427;-74
2022/03/23 09:49:31;;;;;;;28.48;18.08;;;;;;;16.70;29.79;101891.50;8594812;33;20412;-74
2022/03/23 09:54:34;;;;;;;26.60;18.23;;;;;;;17.11;30.37;101892.53;8592173;33;20489;-72
2022/03/23 09:59:39;;;;;;;28.55;18.73;;;;;;;17.35;29.81;101894.19;8593811;33;20412;-73
2022/03/23 10:05:39;;;;;;;28.23;17.70;;;;;;;17.59;27.52;101885.78;8581307;33;20403;-72
2022/03/23 10:11:38;;;;;;;25.90;16.48;;;;;;;17.54;28.70;101879.88;8599177;33;20147;-73
2022/03/23 10:17:40;;;;;;;24.83;17.95;;;;;;;18.29;27.52;101879.56;8615406;33;20636;-73
2022/03/23 10:22:47;;;;;;;21.35;15.57;;;;;;;18.40;24.70;101880.41;8597313;33;20497;-74
2022/03/23 10:27:50;;;;;;;25.70;14.95;;;;;;;18.48;26.44;101875.13;8585093;33;20526;-72
2022/03/23 10:32:54;;;;;;;22.10;15.43;;;;;;;19.10;25.36;101868.47;8598638;33;20458;-73
2022/03/23 10:37:57;;;;;;;22.02;16.08;;;;;;;19.59;25.45;101865.69;8597907;33;20400;-73
2022/03/23 10:43:00;;;;;;;26.33;16.33;;;;;;;19.95;24.62;101858.53;8601112;33;20413;-73
2022/03/23 10:48:14;;;;;;;23.50;16.63;;;;;;;19.63;22.86;101859.78;8599459;33;20428;-73
2022/03/23 10:53:17;;;;;;;22.40;15.43;;;;;;;20.03;23.71;101857.78;8603194;33;20966;-73
2022/03/23 10:58:24;;;;;;;24.55;16.70;;;;;;;20.31;22.71;101855.94;8600622;33;20450;-73
2022/03/23 11:03:39;;;;;;;22.92;15.73;;;;;;;20.16;21.64;101857.41;8603007;33;20190;-73
2022/03/23 11:08:44;;;;;;;22.15;15.20;;;;;;;20.38;22.33;101853.44;8599676;33;20504;-74
2022/03/23 11:19:19;;;;;;;21.92;16.23;;;;;;;21.02;21.38;101845.03;8607340;33;20151;-74
2022/03/23 11:24:31;;;;;;;25.38;16.70;;;;;;;21.02;21.40;101830.53;8613545;33;20178;-74
2022/03/23 11:29:35;;;;;;;21.67;15.77;;;;;;;21.52;21.26;101834.50;8620801;33;21267;-73
2022/03/23 11:34:41;;;;;;;23.13;15.88;;;;;;;22.37;20.38;101835.41;8619055;33;20411;-74
2022/03/23 11:39:45;;;;;;;24.10;16.38;;;;;;;22.74;20.76;101832.25;8621445;33;20409;-73
2022/03/23 11:44:49;;;;;;;23.67;16.43;;;;;;;23.48;20.21;101824.00;8621018;33;20465;-73
2022/03/23 11:50:06;;;;;;;21.40;15.85;;;;;;;23.95;19.85;101812.22;8617372;33;20962;-74
2022/03/23 12:00:42;;;;;;;23.45;17.35;;;;;;;24.21;18.83;101811.03;8617086;33;20189;-74
2022/03/23 12:05:53;;;;;;;24.48;17.10;;;;;;;23.56;19.03;101801.16;8611839;33;20415;-74
2022/03/23 12:10:56;;;;;;;20.05;15.60;;;;;;;24.00;19.67;101787.00;8615880;33;20128;-75
2022/03/23 12:16:01;;;;;;;21.50;15.23;;;;;;;24.31;18.61;101786.97;8619950;33;20182;-74
2022/03/23 12:21:09;;;;;;;25.23;16.80;;;;;;;23.18;19.74;101785.34;8601531;33;20194;-74
2022/03/23 12:26:21;;;;;;;24.67;17.23;;;;;;;23.32;19.41;101778.28;8599618;33;20139;-74
2022/03/23 12:31:37;;;;;;;23.38;15.27;;;;;;;22.48;19.51;101776.75;8599993;33;20163;-74
2022/03/23 12:36:59;;;;;;;21.67;16.40;;;;;;;22.47;20.73;101777.81;8607200;33;20142;-73
2022/03/23 12:42:18;;;;;;;25.55;17.13;;;;;;;21.78;21.04;101769.72;8612543;33;20499;-73
2022/03/23 12:47:27;;;;;;;20.98;15.40;;;;;;;22.66;21.38;101768.41;8582476;33;20368;-74
2022/03/23 12:58:02;;;;;;;22.42;16.00;;;;;;;24.89;19.80;101748.94;8598998;33;20155;-74
2022/03/23 13:03:56;;;;;;;25.10;16.50;;;;;;;25.37;18.83;101749.50;8599275;33;21063;-73
2022/03/23 13:09:01;;;;;;;23.02;15.80;;;;;;;25.52;18.75;101750.34;8596871;33;20443;-73
2022/03/23 13:14:04;;;;;;;21.63;15.07;;;;;;;25.97;17.69;101737.41;8596120;33;20195;-74
2022/03/23 13:19:11;;;;;;;19.40;15.05;;;;;;;27.07;17.86;101724.25;8597782;33;20992;-74
2022/03/23 13:24:16;;;;;;;20.58;14.00;;;;;;;28.62;17.37;101731.91;8600290;33;20416;-74
2022/03/23 13:29:25;;;;;;;18.92;14.68;;;;;;;29.52;15.71;101718.38;8596225;33;20171;-74
2022/03/23 13:34:28;;;;;;;19.45;14.20;;;;;;;29.84;16.12;101718.50;8595103;33;20416;-75
2022/03/23 13:39:33;;;;;;;20.05;15.70;;;;;;;30.20;14.96;101717.03;8592217;33;20196;-74
2022/03/23 13:49:57;;;;;;;22.23;16.40;;;;;;;30.27;15.43;101711.44;8600308;33;22065;-73
2022/03/23 13:55:02;;;;;;;22.10;16.40;;;;;;;29.78;15.61;101709.13;8602478;33;20524;-72
2022/03/23 14:00:23;;;;;;;19.02;15.23;;;;;;;29.53;16.51;101705.38;8605096;33;20186;-73
2022/03/23 14:05:27;;;;;;;22.65;17.98;;;;;;;30.50;14.59;101696.94;8606149;33;21051;-73
2022/03/23 14:10:35;;;;;;;23.00;16.73;;;;;;;29.73;15.22;101697.88;8606849;33;20451;-73
2022/03/23 14:15:53;;;;;;;22.70;17.15;;;;;;;27.72;17.62;101698.09;8606595;33;20422;-72
2022/03/23 14:20:58;;;;;;;24.13;17.38;;;;;;;28.77;17.36;101693.00;8603423;33;20745;-73
2022/03/23 14:26:37;;;;;;;27.52;18.70;;;;;;;29.78;16.17;101692.50;8605004;33;20469;-74
2022/03/23 14:31:43;;;;;;;27.05;19.33;;;;;;;29.41;16.18;101687.78;8610645;33;21473;-72
2022/03/23 14:36:46;;;;;;;27.05;18.52;;;;;;;28.53;17.10;101682.59;8603187;33;20179;-74
2022/03/23 14:41:58;;;;;;;26.27;19.27;;;;;;;27.67;17.67;101678.53;8602203;33;20417;-73
2022/03/23 14:47:02;;;;;;;29.17;19.83;;;;;;;26.71;17.09;101670.09;8599776;33;20181;-73
2022/03/23 14:52:18;;;;;;;23.40;17.92;;;;;;;25.51;19.42;101679.88;8596241;33;20200;-73
2022/03/23 14:57:22;;;;;;;28.02;18.63;;;;;;;25.19;18.63;101670.97;8600658;33;20135;-74
2022/03/23 15:02:25;;;;;;;26.20;17.90;;;;;;;25.08;19.47;101660.47;8605638;33;20187;-74
2022/03/23 15:18:11;;;;;;;25.80;18.55;;;;;;;24.49;20.28;101649.38;8614784;33;20417;-74
2022/03/23 15:23:15;;;;;;;30.92;19.60;;;;;;;24.48;19.85;101658.66;8618233;33;21087;-73
2022/03/23 15:28:20;;;;;;;26.83;19.52;;;;;;;24.23;19.77;101655.25;8620337;33;20148;-74
2022/03/23 15:33:23;;;;;;;26.98;19.33;;;;;;;23.97;20.75;101658.34;8622623;33;20449;-74
2022/03/23 15:38:31;;;;;;;27.40;19.45;;;;;;;23.64;20.74;101655.78;8621118;33;20428;-74
2022/03/23 15:43:37;;;;;;;29.08;20.30;;;;;;;23.31;21.26;101657.81;8615153;33;20856;-74
2022/03/23 15:48:43;;;;;;;28.48;18.42;;;;;;;22.83;21.70;101648.72;8613021;33;20552;-74
2022/03/23 15:53:46;;;;;;;27.88;18.92;;;;;;;22.61;22.59;101645.69;8611671;33;20175;-74
2022/03/23 15:58:51;;;;;;;31.80;19.88;;;;;;;22.49;22.23;101636.09;8601478;33;20597;-75
2022/03/23 16:03:54;;;;;;;28.52;19.58;;;;;;;22.15;22.78;101642.59;8614596;33;20558;-74
2022/03/23 16:08:57;;;;;;;30.70;20.33;;;;;;;21.84;23.09;101643.25;8609833;33;20506;-73
2022/03/23 16:14:02;;;;;;;29.65;20.63;;;;;;;21.61;22.93;101650.31;8572833;33;20464;-74
2022/03/23 16:19:05;;;;;;;32.33;20.48;;;;;;;21.33;23.44;101645.09;8598743;33;20464;-74
2022/03/23 16:24:09;;;;;;;29.42;19.33;;;;;;;21.07;23.80;101645.19;8604563;33;20842;-74
2022/03/23 16:29:13;;;;;;;33.83;20.88;;;;;;;20.75;24.09;101643.06;8601669;33;21839;-72
2022/03/23 16:34:18;;;;;;;31.63;20.90;;;;;;;20.31;24.58;101648.56;8605916;33;20946;-73
2022/03/23 16:39:21;;;;;;;32.10;20.02;;;;;;;19.87;24.71;101643.84;8603322;33;20404;-74
2022/03/23 16:44:28;;;;;;;29.08;18.88;;;;;;;19.36;24.83;101647.16;8602005;33;20494;-74
2022/03/23 16:49:32;;;;;;;32.42;20.35;;;;;;;18.96;25.45;101646.50;8604039;33;20230;-73
2022/03/23 16:54:35;;;;;;;30.35;18.70;;;;;;;18.63;25.97;101652.44;8600016;33;21385;-73
2022/03/23 16:59:40;;;;;;;28.27;17.88;;;;;;;;;;8602425;33;20192;-73
2022/03/23 17:15:31;;;;;;;26.10;16.52;;;;;;;17.15;26.98;101654.28;8598907;33;20440;-72
2022/03/23 17:20:35;;;;;;;25.70;17.25;;;;;;;16.79;27.61;101664.63;8603979;33;20179;-74
2022/03/23 17:25:39;;;;;;;27.73;16.98;;;;;;;16.46;27.85;101661.13;8604497;33;21012;-73
2022/03/23 17:30:43;;;;;;;25.55;15.38;;;;;;;16.10;28.40;101665.97;8600845;33;20175;-74
2022/03/23 17:35:47;;;;;;;26.83;17.05;;;;;;;15.92;28.65;101672.94;8600482;33;21849;-73
2022/03/23 17:40:50;;;;;;;25.65;16.92;;;;;;;15.67;28.94;101674.97;8602065;33;20183;-74
2022/03/23 17:45:56;;;;;;;31.17;17.58;;;;;;;15.45;28.71;101677.72;8601027;33;20204;-74
2022/03/23 17:50:59;;;;;;;27.13;16.45;;;;;;;15.29;29.12;101679.91;8602392;33;20742;-74
2022/03/23 17:56:02;;;;;;;29.10;17.23;;;;;;;15.15;28.92;101683.72;8601541;33;20234;-74
2022/03/23 18:01:08;;;;;;;27.98;16.88;;;;;;;15.01;28.95;101690.22;8593827;33;20483;-74
2022/03/23 18:06:11;;;;;;;25.48;16.67;;;;;;;14.80;28.86;101684.66;8595905;33;20644;-74
2022/03/23 18:11:15;;;;;;;28.58;16.77;;;;;;;14.69;29.36;101695.47;8596842;33;20464;-74
2022/03/23 18:16:20;;;;;;;26.30;17.27;;;;;;;14.52;29.68;101700.34;8601255;33;21048;-74
2022/03/23 18:21:23;;;;;;;24.30;16.63;;;;;;;14.37;29.30;101699.66;8579926;33;20179;-74
2022/03/23 18:26:27;;;;;;;28.63;16.88;;;;;;;14.29;29.45;101710.19;8604122;33;20464;-74
2022/03/23 18:31:31;;;;;;;28.25;17.55;;;;;;;14.07;29.68;101707.34;8598101;33;20222;-74
2022/03/23 18:36:35;;;;;;;37.45;20.73;;;;;;;13.89;29.93;101710.47;8600024;33;20431;-74
2022/03/23 18:41:38;;;;;;;36.55;22.45;;;;;;;13.76;29.60;101715.03;8603193;33;20152;-73
2022/03/23 18:46:44;;;;;;;34.63;20.05;;;;;;;13.70;29.45;101718.19;8602636;33;20178;-73
2022/03/23 18:51:49;;;;;;;31.23;20.83;;;;;;;13.61;29.90;101716.19;8613910;33;20193;-73
2022/03/23 18:56:52;;;;;;;28.85;19.17;;;;;;;13.51;29.73;101725.91;8612285;33;20174;-73
2022/03/23 19:01:56;;;;;;;30.00;18.92;;;;;;;13.37;30.42;101722.38;8618843;33;20635;-73
2022/03/23 19:06:59;;;;;;;27.48;16.73;;;;;;;13.26;29.65;101725.81;8618957;33;20417;-73
2022/03/23 19:12:03;;;;;;;32.58;17.35;;;;;;;13.17;29.64;101722.91;8620917;33;20420;-73
2022/03/23 19:17:08;;;;;;;27.55;16.38;;;;;;;13.10;29.83;101721.59;8621242;33;20928;-73
2022/03/23 19:22:13;;;;;;;32.70;18.83;;;;;;;13.08;30.13;101718.16;8619372;33;20179;-73
2022/03/23 19:27:17;;;;;;;31.33;17.63;;;;;;;12.90;30.34;101725.72;8609599;33;20801;-74
2022/03/23 19:32:21;;;;;;;35.97;18.88;;;;;;;12.77;30.24;101728.38;8617094;33;20191;-74
2022/03/23 19:37:25;;;;;;;33.95;20.00;;;;;;;12.66;30.77;101717.47;8605268;33;20136;-74
2022/03/23 19:42:29;;;;;;;31.60;18.13;;;;;;;12.47;31.23;101718.72;8604996;33;20179;-73
2022/03/23 19:47:33;;;;;;;28.52;17.58;;;;;;;12.41;31.03;101721.84;8604273;33;20211;-73
2022/03/23 19:52:37;;;;;;;33.65;19.77;;;;;;;12.31;31.38;101726.13;8606649;33;20628;-73
2022/03/23 19:57:40;;;;;;;32.28;18.88;;;;;;;12.24;31.53;101733.75;8599640;33;20191;-73
2022/03/23 20:02:45;;;;;;;29.20;16.92;;;;;;;12.20;31.92;101725.94;8606598;33;20653;-74
2022/03/23 20:07:49;;;;;;;31.50;18.42;;;;;;;12.23;31.57;101734.72;8602715;33;20947;-73
2022/03/23 20:12:52;;;;;;;32.13;18.85;;;;;;;12.03;32.53;101732.47;8603958;33;20189;-73
2022/03/23 20:17:56;;;;;;;32.85;18.60;;;;;;;11.76;32.81;101727.06;8604286;33;20193;-72
2022/03/23 20:22:59;;;;;;;29.48;18.17;;;;;;;11.63;32.47;101732.38;8604502;33;22025;-72
2022/03/23 20:28:02;;;;;;;31.83;18.63;;;;;;;11.55;33.17;101734.69;8603646;33;20407;-73
2022/03/23 20:33:07;;;;;;;34.50;18.48;;;;;;;11.55;33.16;101735.56;8600277;33;20485;-72
2022/03/23 20:38:10;;;;;;;32.20;19.02;;;;;;;11.40;33.24;101731.13;8603864;33;20476;-74
2022/03/23 20:43:15;;;;;;;35.03;19.30;;;;;;;11.30;33.82;101730.88;8596214;33;20425;-74
2022/03/23 20:48:20;;;;;;;34.90;18.65;;;;;;;11.30;33.51;101729.97;8604641;33;20143;-74
2022/03/23 20:53:27;;;;;;;36.88;20.60;;;;;;;11.27;33.86;101729.22;8602997;33;20530;-74
2022/03/23 20:58:30;;;;;;;33.22;20.17;;;;;;;11.19;33.94;101720.78;8603320;33;20131;-74
2022/03/23 21:03:35;;;;;;;35.60;20.50;;;;;;;11.14;34.01;101724.72;8606037;33;20490;-73
2022/03/23 21:08:40;;;;;;;32.95;19.27;;;;;;;11.12;33.78;101730.19;8598715;33;20234;-72
2022/03/23 21:13:44;;;;;;;39.40;21.60;;;;;;;11.02;33.91;101732.53;8599199;33;20434;-72
2022/03/23 21:18:49;;;;;;;33.00;19.77;;;;;;;10.80;34.55;101729.44;8587718;33;20242;-71
2022/03/23 21:23:52;;;;;;;36.60;20.30;;;;;;;10.38;36.79;101739.09;8575932;33;20407;-74
2022/03/23 21:28:55;;;;;;;34.58;19.23;;;;;;;10.10;37.10;101735.34;8595754;33;20519;-74
2022/03/23 21:34:00;;;;;;;35.45;19.30;;;;;;;9.96;37.20;101740.66;8600430;33;20437;-74
2022/03/23 21:39:03;;;;;;;36.47;18.92;;;;;;;9.81;35.99;101745.00;8599350;33;20140;-74
2022/03/23 21:44:08;;;;;;;35.67;20.83;;;;;;;9.92;36.58;101744.44;8600861;33;20423;-73
2022/03/23 21:49:13;;;;;;;38.83;20.45;;;;;;;9.89;36.70;101739.25;8599722;33;20419;-73
2022/03/23 21:54:16;;;;;;;39.70;20.63;;;;;;;9.93;36.34;101740.81;8598881;33;20143;-72
2022/03/23 21:59:20;;;;;;;36.00;22.88;;;;;;;9.91;37.01;101743.59;8601532;33;21986;-73
2022/03/23 22:04:25;;;;;;;35.72;20.05;;;;;;;9.70;36.90;101734.03;8597604;33;20443;-74
2022/03/23 22:09:28;;;;;;;37.25;20.95;;;;;;;9.60;37.31;101733.69;8596103;33;20149;-75
2022/03/23 22:14:31;;;;;;;35.42;21.40;;;;;;;9.54;37.99;101739.38;8600534;33;20187;-74
2022/03/23 22:19:36;;;;;;;41.40;23.92;;;;;;;9.55;38.45;101738.44;8599605;33;21519;-74
2022/03/23 22:24:39;;;;;;;37.42;23.75;;;;;;;9.54;38.09;101743.88;8609339;33;20135;-74
2022/03/23 22:29:42;;;;;;;45.25;27.65;;;;;;;9.34;38.01;101742.28;8608333;33;20162;-75
2022/03/23 22:34:48;;;;;;;36.17;21.75;;;;;;;9.17;37.36;101740.53;8606040;33;20233;-74
2022/03/23 22:39:51;;;;;;;38.05;20.83;;;;;;;8.84;38.37;101738.69;8598033;33;20135;-74
2022/03/23 22:44:54;;;;;;;36.47;20.85;;;;;;;8.65;39.68;101738.75;8603537;33;20702;-74
2022/03/23 22:49:59;;;;;;;36.15;20.40;;;;;;;8.37;39.94;101741.94;8603687;33;20419;-74
2022/03/23 22:55:02;;;;;;;31.48;18.38;;;;;;;8.34;39.98;101732.25;8602374;33;20713;-74
2022/03/23 23:01:10;;;;;;;35.40;20.92;;;;;;;8.39;40.00;101734.69;8600810;33;20147;-73
2022/03/23 23:06:16;;;;;;;36.85;20.95;;;;;;;8.40;39.89;101725.72;8601242;33;22020;-74
2022/03/23 23:11:21;;;;;;;38.67;20.10;;;;;;;8.30;40.08;101721.78;8603379;33;20562;-74
2022/03/23 23:16:24;;;;;;;38.75;21.95;;;;;;;8.14;40.79;101738.59;8607166;33;20926;-74
2022/03/23 23:21:29;;;;;;;41.47;22.30;;;;;;;7.95;42.11;101727.06;8607970;33;20249;-74
2022/03/23 23:26:32;;;;;;;43.72;23.38;;;;;;;8.00;42.33;101726.84;8607141;33;20615;-74
2022/03/23 23:31:36;;;;;;;39.83;23.00;;;;;;;8.00;41.80;101719.66;8607681;33;20499;-74
2022/03/23 23:36:45;;;;;;;40.75;22.75;;;;;;;7.99;42.29;101725.13;8606612;33;20405;-74
2022/03/23 23:41:48;;;;;;;38.40;22.55;;;;;;;7.78;42.83;101727.88;8607766;33;20175;-74
2022/03/23 23:46:51;;;;;;;41.45;23.45;;;;;;;7.40;43.55;101727.88;8602271;33;20696;-73
2022/03/23 23:51:55;;;;;;;42.15;24.20;;;;;;;7.28;43.63;101728.44;8612904;33;20147;-74
2022/03/23 23:56:59;;;;;;;39.72;21.77;;;;;;;7.19;43.66;101721.72;8596751;33;20413;-74
